createdAt,value
2022-08-22T00:03:10.469Z,1.78
2022-08-22T00:04:46.680Z,2.51
2022-08-22T00:06:18.353Z,3.14
2022-08-22T00:07:51.063Z,2.92
2022-08-22T00:09:22.559Z,2.71
2022-08-22T00:10:53.988Z,2.63
2022-08-22T00:12:25.629Z,2.54
2022-08-22T00:14:01.720Z,2.59
2022-08-22T00:15:43.601Z,2.53
2022-08-22T00:17:15.666Z,2.49
2022-08-22T00:18:47.013Z,2.91
2022-08-22T00:20:18.437Z,2.92
2022-08-22T00:21:49.871Z,3.04
2022-08-22T00:23:21.518Z,2.77
2022-08-22T00:24:52.852Z,2.93
2022-08-22T00:26:24.192Z,2.84
2022-08-22T00:27:55.623Z,2.99
2022-08-22T00:29:27.204Z,2.81
2022-08-22T00:31:00.283Z,2.87
2022-08-22T00:32:31.686Z,2.86
2022-08-22T00:34:03.031Z,2.65
2022-08-22T00:35:34.428Z,2.97
2022-08-22T00:37:05.822Z,2.89
2022-08-22T00:38:38.672Z,2.85
2022-08-22T00:40:13.569Z,2.72
2022-08-22T00:41:45.074Z,2.75
2022-08-22T00:43:16.401Z,2.67
2022-08-22T00:44:48.121Z,2.85
2022-08-22T00:46:19.583Z,2.71
2022-08-22T00:47:50.976Z,2.63
2022-08-22T00:49:22.315Z,2.47
2022-08-22T00:50:56.936Z,2.81
2022-08-22T00:52:28.452Z,2.63
2022-08-22T00:54:00.074Z,2.85
2022-08-22T00:55:35.079Z,2.81
2022-08-22T00:57:06.765Z,2.81
2022-08-22T00:58:38.336Z,2.96
2022-08-22T01:00:09.771Z,3.08
2022-08-22T01:01:41.657Z,3.06
2022-08-22T01:03:13.467Z,3.10
2022-08-22T01:04:45.040Z,3.41
2022-08-22T01:06:16.587Z,3.01
2022-08-22T01:07:49.125Z,3.19
2022-08-22T01:09:20.459Z,3.24
2022-08-22T01:10:51.807Z,3.69
2022-08-22T01:12:23.236Z,3.70
2022-08-22T01:13:54.861Z,3.39
2022-08-22T01:15:26.418Z,3.23
2022-08-22T01:16:58.053Z,3.27
2022-08-22T01:18:29.465Z,3.52
2022-08-22T01:20:01.021Z,3.28
2022-08-22T01:21:32.442Z,3.37
2022-08-22T01:23:03.981Z,3.44
2022-08-22T01:24:35.307Z,3.57
2022-08-22T01:26:06.697Z,3.93
2022-08-22T01:27:41.374Z,3.69
2022-08-22T01:29:13.085Z,3.99
2022-08-22T01:30:45.735Z,4.06
2022-08-22T01:32:17.259Z,4.06
2022-08-22T01:33:48.639Z,3.77
2022-08-22T01:35:20.137Z,3.71
2022-08-22T01:36:51.584Z,4.19
2022-08-22T01:38:22.991Z,3.85
2022-08-22T01:39:54.483Z,3.40
2022-08-22T01:41:26.087Z,3.32
2022-08-22T01:42:57.499Z,3.05
2022-08-22T01:44:29.038Z,3.28
2022-08-22T01:46:00.376Z,3.40
2022-08-22T01:47:36.576Z,3.54
2022-08-22T01:49:09.152Z,3.41
2022-08-22T01:50:40.746Z,3.42
2022-08-22T01:52:12.125Z,3.38
2022-08-22T01:53:43.892Z,3.35
2022-08-22T01:55:15.407Z,3.57
2022-08-22T01:56:46.735Z,3.43
2022-08-22T01:58:18.081Z,3.12
2022-08-22T01:59:49.498Z,3.05
2022-08-22T02:01:20.863Z,2.95
2022-08-22T02:02:52.444Z,3.19
2022-08-22T02:04:23.780Z,3.11
2022-08-22T02:05:55.197Z,3.50
2022-08-22T02:07:32.038Z,3.62
2022-08-22T02:09:03.752Z,3.75
2022-08-22T02:10:35.121Z,3.97
2022-08-22T02:12:06.812Z,4.17
2022-08-22T02:13:53.180Z,4.37
2022-08-22T02:15:24.606Z,4.21
2022-08-22T02:16:56.130Z,4.16
2022-08-22T02:18:27.570Z,3.99
2022-08-22T02:19:59.180Z,4.24
2022-08-22T02:21:30.645Z,4.00
2022-08-22T02:23:01.998Z,4.13
2022-08-22T02:24:33.357Z,4.12
2022-08-22T02:26:04.808Z,4.23
2022-08-22T02:27:36.167Z,4.08
2022-08-22T02:29:07.745Z,4.32
2022-08-22T02:30:39.185Z,4.18
2022-08-22T02:32:10.478Z,4.15
2022-08-22T02:33:41.930Z,4.19
2022-08-22T02:35:13.226Z,3.93
2022-08-22T02:36:44.868Z,3.84
2022-08-22T02:38:16.308Z,3.93
2022-08-22T02:39:47.864Z,4.06
2022-08-22T02:41:19.279Z,3.96
2022-08-22T02:42:50.725Z,4.01
2022-08-22T02:44:22.136Z,4.27
2022-08-22T02:45:53.542Z,4.38
2022-08-22T02:47:24.862Z,4.21
2022-08-22T02:48:56.276Z,4.46
2022-08-22T02:50:27.796Z,3.96
2022-08-22T02:51:59.228Z,3.99
2022-08-22T02:53:31.498Z,4.26
2022-08-22T02:55:03.061Z,4.26
2022-08-22T02:56:34.523Z,4.46
2022-08-22T02:58:05.895Z,4.59
2022-08-22T02:59:37.480Z,4.59
2022-08-22T03:01:08.887Z,4.25
2022-08-22T03:02:40.394Z,3.85
2022-08-22T03:04:11.769Z,3.93
2022-08-22T03:05:43.101Z,4.07
2022-08-22T03:07:14.532Z,4.04
2022-08-22T03:08:50.825Z,3.76
2022-08-22T03:10:22.381Z,3.75
2022-08-22T03:11:53.782Z,3.73
2022-08-22T03:13:25.079Z,3.86
2022-08-22T03:14:56.419Z,4.14
2022-08-22T03:16:28.192Z,4.73
2022-08-22T03:17:59.968Z,4.65
2022-08-22T03:19:31.646Z,4.82
2022-08-22T03:21:03.062Z,4.35
2022-08-22T03:22:34.503Z,4.30
2022-08-22T03:24:05.822Z,4.09
2022-08-22T03:25:37.464Z,4.34
2022-08-22T03:27:08.773Z,4.71
2022-08-22T03:28:40.085Z,4.79
2022-08-22T03:30:30.582Z,4.65
2022-08-22T03:32:02.076Z,4.40
2022-08-22T03:33:33.584Z,4.25
2022-08-22T03:35:04.911Z,4.34
2022-08-22T03:36:36.376Z,4.35
2022-08-22T03:38:07.687Z,4.30
2022-08-22T03:39:39.178Z,4.61
2022-08-22T03:41:10.622Z,4.61
2022-08-22T03:42:43.153Z,4.56
2022-08-22T03:44:14.414Z,4.49
2022-08-22T03:45:45.780Z,4.30
2022-08-22T03:47:17.230Z,4.40
2022-08-22T03:48:48.686Z,4.37
2022-08-22T03:50:20.002Z,4.31
2022-08-22T03:51:51.407Z,5.01
2022-08-22T03:53:22.708Z,4.62
2022-08-22T03:54:54.012Z,4.50
2022-08-22T03:56:25.731Z,4.52
2022-08-22T04:00:23.079Z,4.72
2022-08-22T04:01:54.470Z,4.72
2022-08-22T04:03:25.876Z,4.61
2022-08-22T04:04:57.158Z,5.09
2022-08-22T04:06:28.710Z,4.94
2022-08-22T04:08:00.428Z,4.91
2022-08-22T04:09:31.997Z,5.04
2022-08-22T04:11:03.924Z,4.99
2022-08-22T04:12:35.296Z,5.26
2022-08-22T04:14:11.786Z,5.23
2022-08-22T04:15:43.139Z,5.09
2022-08-22T04:17:14.443Z,4.94
2022-08-22T04:18:45.764Z,5.07
2022-08-22T04:20:17.013Z,4.66
2022-08-22T04:21:48.484Z,5.06
2022-08-22T04:23:20.041Z,4.62
2022-08-22T04:24:52.200Z,4.65
2022-08-22T04:26:23.957Z,4.47
2022-08-22T04:28:00.354Z,4.66
2022-08-22T04:29:31.975Z,4.52
2022-08-22T04:31:03.559Z,4.64
2022-08-22T04:32:46.070Z,4.56
2022-08-22T04:34:22.397Z,4.48
2022-08-22T04:35:53.718Z,4.78
2022-08-22T04:37:25.094Z,4.61
2022-08-22T04:38:56.393Z,4.93
2022-08-22T04:40:27.708Z,4.78
2022-08-22T04:42:11.129Z,4.72
2022-08-22T04:44:02.873Z,4.89
2022-08-22T04:45:39.488Z,4.82
2022-08-22T04:47:21.061Z,5.09
2022-08-22T04:49:02.655Z,5.12
2022-08-22T04:51:18.454Z,4.73
2022-08-22T04:52:50.038Z,4.66
2022-08-22T04:54:21.631Z,5.07
2022-08-22T04:56:17.587Z,4.78
2022-08-22T04:57:53.899Z,5.09
2022-08-22T04:59:43.106Z,4.74
2022-08-22T05:01:21.823Z,4.77
2022-08-22T05:02:53.506Z,4.99
2022-08-22T05:04:25.097Z,5.10
2022-08-22T05:05:56.627Z,5.22
2022-08-22T05:07:27.924Z,5.11
2022-08-22T05:09:11.823Z,4.95
2022-08-22T05:10:45.674Z,5.45
2022-08-22T05:12:17.024Z,5.00
2022-08-22T05:13:48.448Z,4.90
2022-08-22T05:15:23.141Z,4.91
2022-08-22T05:16:55.026Z,5.25
2022-08-22T05:18:29.540Z,5.14
2022-08-22T05:20:01.505Z,5.28
2022-08-22T05:21:32.906Z,5.11
2022-08-22T05:23:05.941Z,5.19
2022-08-22T05:24:37.993Z,5.38
2022-08-22T05:26:09.566Z,5.13
2022-08-22T05:27:40.988Z,5.28
2022-08-22T05:29:12.476Z,5.27
2022-08-22T05:30:43.871Z,5.03
2022-08-22T05:32:15.285Z,5.21
2022-08-22T05:33:46.874Z,5.19
2022-08-22T05:35:18.445Z,5.13
2022-08-22T05:36:49.754Z,5.41
2022-08-22T05:38:21.080Z,5.02
2022-08-22T05:39:52.565Z,5.27
2022-08-22T05:41:24.196Z,5.41
2022-08-22T05:42:55.673Z,5.18
2022-08-22T05:44:27.005Z,5.32
2022-08-22T05:45:58.474Z,5.57
2022-08-22T05:47:30.075Z,5.70
2022-08-22T05:49:01.756Z,5.55
2022-08-22T05:50:33.361Z,5.73
2022-08-22T05:52:04.811Z,5.33
2022-08-22T05:53:37.564Z,5.26
2022-08-22T05:55:08.877Z,5.45
2022-08-22T05:56:40.531Z,5.75
2022-08-22T05:58:11.853Z,5.78
2022-08-22T05:59:43.406Z,4.74
2022-08-22T06:01:14.974Z,4.67
2022-08-22T06:02:46.501Z,5.22
2022-08-22T06:04:18.003Z,5.54
2022-08-22T06:05:49.534Z,5.77
2022-08-22T06:07:21.217Z,6.18
2022-08-22T06:08:52.631Z,6.38
2022-08-22T06:10:24.022Z,6.11
2022-08-22T06:11:55.401Z,6.03
2022-08-22T06:13:27.696Z,5.90
2022-08-22T06:15:01.342Z,5.62
2022-08-22T06:16:32.706Z,5.69
2022-08-22T06:18:04.276Z,6.04
2022-08-22T06:19:35.671Z,6.27
2022-08-22T06:21:07.007Z,6.24
2022-08-22T06:22:39.461Z,6.11
2022-08-22T06:24:10.792Z,6.51
2022-08-22T06:25:42.270Z,6.76
2022-08-22T06:27:18.622Z,7.06
2022-08-22T06:28:55.138Z,7.41
2022-08-22T06:30:27.198Z,7.31
2022-08-22T06:31:58.601Z,7.68
2022-08-22T06:33:30.028Z,7.49
2022-08-22T06:35:01.752Z,7.23
2022-08-22T06:36:33.471Z,8.09
2022-08-22T06:38:04.917Z,7.97
2022-08-22T06:39:37.378Z,7.31
2022-08-22T06:41:08.983Z,7.62
2022-08-22T06:42:40.421Z,7.40
2022-08-22T06:44:11.803Z,7.06
2022-08-22T06:45:45.209Z,7.82
2022-08-22T06:47:16.750Z,7.60
2022-08-22T06:48:48.250Z,7.31
2022-08-22T06:50:19.896Z,6.87
2022-08-22T06:51:51.286Z,6.72
2022-08-22T06:53:22.735Z,6.54
2022-08-22T06:54:54.099Z,6.66
2022-08-22T06:56:25.591Z,6.54
2022-08-22T06:57:57.274Z,6.73
2022-08-22T06:59:28.729Z,6.44
2022-08-22T07:01:05.142Z,6.49
2022-08-22T07:02:42.936Z,6.43
2022-08-22T07:04:15.368Z,6.07
2022-08-22T07:05:46.723Z,6.22
2022-08-22T07:07:18.173Z,6.35
2022-08-22T07:08:49.577Z,6.47
2022-08-22T07:10:21.075Z,6.07
2022-08-22T07:11:52.476Z,5.87
2022-08-22T07:13:23.825Z,6.22
2022-08-22T07:14:55.256Z,5.78
2022-08-22T07:16:26.951Z,5.53
2022-08-22T07:17:58.517Z,5.27
2022-08-22T07:19:30.065Z,5.79
2022-08-22T07:21:01.751Z,5.06
2022-08-22T07:22:33.711Z,5.26
2022-08-22T07:24:05.264Z,5.41
2022-08-22T07:25:36.640Z,5.40
2022-08-22T07:27:08.021Z,4.83
2022-08-22T07:28:50.934Z,4.91
2022-08-22T07:30:29.358Z,5.44
2022-08-22T07:32:01.110Z,5.23
2022-08-22T07:33:32.661Z,5.54
2022-08-22T07:35:04.067Z,4.58
2022-08-22T07:36:35.690Z,5.03
2022-08-22T07:38:07.136Z,4.75
2022-08-22T07:39:41.507Z,5.00
2022-08-22T07:41:14.313Z,5.30
2022-08-22T07:42:46.092Z,4.58
2022-08-22T07:44:19.236Z,4.66
2022-08-22T07:45:50.780Z,4.43
2022-08-22T07:47:26.639Z,4.40
2022-08-22T07:49:08.257Z,4.53
2022-08-22T07:50:40.739Z,4.37
2022-08-22T07:52:12.341Z,4.40
2022-08-22T07:53:43.911Z,4.13
2022-08-22T07:55:15.338Z,4.40
2022-08-22T07:56:46.861Z,4.25
2022-08-22T07:58:18.502Z,4.14
2022-08-22T07:59:50.206Z,4.19
2022-08-22T08:01:21.811Z,4.03
2022-08-22T08:02:53.670Z,3.86
2022-08-22T08:04:25.175Z,3.82
2022-08-22T08:05:57.168Z,3.98
2022-08-22T08:07:28.642Z,4.25
2022-08-22T08:09:00.062Z,3.81
2022-08-22T08:10:31.676Z,3.66
2022-08-22T08:12:03.200Z,4.67
2022-08-22T08:13:34.626Z,3.84
2022-08-22T08:15:06.419Z,3.95
2022-08-22T08:16:37.823Z,3.91
2022-08-22T08:18:09.277Z,3.83
2022-08-22T08:19:40.780Z,3.80
2022-08-22T08:21:12.400Z,3.97
2022-08-22T08:22:43.817Z,3.67
2022-08-22T08:24:15.383Z,3.52
2022-08-22T08:25:46.938Z,4.04
2022-08-22T08:27:25.159Z,4.25
2022-08-22T08:28:56.639Z,4.52
2022-08-22T08:30:28.058Z,4.56
2022-08-22T08:31:59.440Z,4.12
2022-08-22T08:33:30.841Z,3.94
2022-08-22T08:35:02.320Z,3.37
2022-08-22T08:36:35.254Z,3.49
2022-08-22T08:38:06.895Z,3.62
2022-08-22T08:39:38.556Z,3.65
2022-08-22T08:41:10.010Z,3.54
2022-08-22T08:42:42.127Z,3.70
2022-08-22T08:44:14.959Z,3.42
2022-08-22T08:45:46.737Z,3.09
2022-08-22T08:47:18.140Z,3.15
2022-08-22T08:48:49.671Z,3.42
2022-08-22T08:50:21.560Z,2.96
2022-08-22T08:51:55.364Z,2.78
2022-08-22T08:53:26.848Z,2.46
2022-08-22T08:54:58.235Z,2.41
2022-08-22T08:56:29.845Z,2.69
2022-08-22T08:58:05.110Z,2.46
2022-08-22T08:59:40.406Z,2.36
2022-08-22T09:01:16.189Z,2.46
2022-08-22T09:02:50.160Z,2.60
2022-08-22T09:04:21.604Z,2.79
2022-08-22T09:05:53.103Z,3.19
2022-08-22T09:07:24.604Z,3.38
2022-08-22T09:08:56.103Z,2.92
2022-08-22T09:10:29.532Z,2.79
2022-08-22T09:12:01.183Z,2.80
2022-08-22T09:13:34.495Z,2.87
2022-08-22T09:15:14.504Z,2.99
2022-08-22T09:16:50.067Z,3.07
2022-08-22T09:18:23.344Z,3.00
2022-08-22T09:19:58.785Z,3.17
2022-08-22T09:21:31.505Z,2.75
2022-08-22T09:23:03.151Z,2.86
2022-08-22T09:24:35.416Z,3.07
2022-08-22T09:26:07.030Z,2.95
2022-08-22T09:27:40.424Z,2.81
2022-08-22T09:29:11.996Z,3.05
2022-08-22T09:30:43.740Z,2.72
2022-08-22T09:32:15.747Z,2.67
2022-08-22T09:33:51.768Z,2.55
2022-08-22T09:35:23.557Z,2.81
2022-08-22T09:36:55.082Z,2.84
2022-08-22T09:38:27.591Z,2.83
2022-08-22T09:39:59.093Z,2.94
2022-08-22T09:41:31.434Z,2.88
2022-08-22T09:43:04.179Z,2.31
2022-08-22T09:44:39.537Z,2.24
2022-08-22T09:46:11.399Z,2.34
2022-08-22T09:47:43.077Z,2.18
2022-08-22T09:49:16.475Z,2.22
2022-08-22T09:50:48.127Z,2.13
2022-08-22T09:52:34.009Z,2.20
2022-08-22T09:54:09.715Z,2.00
2022-08-22T09:55:41.421Z,1.79
2022-08-22T09:57:14.097Z,1.83
2022-08-22T09:58:46.000Z,2.31
2022-08-22T10:00:17.389Z,2.12
2022-08-22T10:01:53.757Z,1.61
2022-08-22T10:03:25.376Z,1.59
2022-08-22T18:05:48.831Z,2.80
2022-08-22T18:07:20.436Z,2.38
2022-08-22T18:09:14.822Z,2.28
2022-08-22T18:10:46.440Z,2.23
2022-08-22T18:12:18.022Z,2.50
2022-08-22T18:13:50.696Z,2.44
2022-08-22T18:15:22.128Z,2.35
2022-08-22T18:16:53.524Z,2.35
2022-08-22T18:18:29.618Z,2.39
2022-08-22T18:20:01.907Z,3.55
2022-08-22T18:21:33.615Z,2.65
2022-08-22T18:23:05.070Z,2.69
2022-08-22T18:24:53.316Z,2.67
2022-08-22T18:26:24.895Z,2.43
2022-08-22T18:27:58.929Z,2.24
2022-08-22T18:29:30.643Z,1.96
2022-08-22T18:31:02.136Z,2.29
2022-08-22T18:32:33.579Z,2.17
2022-08-22T18:34:05.053Z,1.92
2022-08-22T18:35:37.043Z,2.00
2022-08-22T18:37:11.893Z,2.17
2022-08-22T18:38:43.447Z,1.98
2022-08-22T18:40:14.945Z,1.92
2022-08-22T18:41:46.571Z,2.04
2022-08-22T18:43:18.088Z,2.09
2022-08-22T18:44:49.701Z,2.05
2022-08-22T18:46:21.278Z,2.35
2022-08-22T18:47:53.017Z,2.07
2022-08-22T18:49:24.457Z,2.15
2022-08-22T18:50:56.024Z,2.26
2022-08-22T18:52:27.522Z,1.88
2022-08-22T18:53:59.267Z,2.25
2022-08-22T18:55:30.906Z,2.09
2022-08-22T18:57:02.435Z,2.26
2022-08-22T18:58:33.895Z,1.93
2022-08-22T19:00:06.450Z,2.31
2022-08-22T19:01:44.674Z,2.17
2022-08-22T19:03:16.619Z,2.14
2022-08-22T19:04:48.122Z,2.29
2022-08-22T19:06:19.911Z,2.01
2022-08-22T19:07:51.669Z,2.22
2022-08-22T19:09:23.091Z,2.23
2022-08-22T19:10:54.596Z,2.25
2022-08-22T19:12:26.073Z,2.06
2022-08-22T19:13:58.845Z,2.20
2022-08-22T19:15:30.589Z,2.19
2022-08-22T19:17:02.195Z,2.27
2022-08-22T19:18:33.783Z,2.12
2022-08-22T19:20:05.269Z,2.33
2022-08-22T19:21:37.627Z,2.27
2022-08-22T19:23:09.671Z,2.04
2022-08-22T19:25:11.786Z,2.09
2022-08-22T19:26:48.538Z,2.38
2022-08-22T19:28:20.016Z,2.46
2022-08-22T19:29:51.541Z,2.62
2022-08-22T19:31:23.220Z,2.27
2022-08-22T19:32:54.905Z,2.41
2022-08-22T19:34:26.387Z,2.66
2022-08-22T19:35:57.860Z,3.47
2022-08-22T19:37:31.978Z,3.45
2022-08-22T19:39:04.656Z,2.78
2022-08-22T19:40:40.417Z,2.34
2022-08-22T19:42:17.273Z,2.27
2022-08-22T19:43:48.773Z,2.03
2022-08-22T19:45:20.384Z,2.16
2022-08-22T19:46:52.919Z,2.21
2022-08-22T19:48:24.433Z,2.25
2022-08-22T19:49:55.906Z,2.19
2022-08-22T19:51:27.608Z,2.27
2022-08-22T19:52:59.452Z,2.47
2022-08-22T19:54:31.022Z,2.26
2022-08-22T19:56:02.558Z,2.27
2022-08-22T19:57:39.099Z,2.50
2022-08-22T19:59:10.507Z,2.28
2022-08-22T20:00:42.309Z,2.58
2022-08-22T20:02:13.952Z,2.69
2022-08-22T20:03:47.174Z,2.52
2022-08-22T20:05:18.698Z,2.47
2022-08-22T20:06:50.346Z,2.46
2022-08-22T20:08:21.950Z,2.35
2022-08-22T20:09:56.776Z,2.40
2022-08-22T20:11:28.394Z,2.32
2022-08-22T20:12:59.979Z,2.64
2022-08-22T20:14:31.758Z,2.77
2022-08-22T20:16:03.231Z,2.97
2022-08-22T20:17:34.775Z,2.67
2022-08-22T20:19:07.685Z,2.51
2022-08-22T20:20:40.229Z,2.68
2022-08-22T20:22:11.676Z,2.65
2022-08-22T20:23:43.143Z,2.61
2022-08-22T20:25:15.729Z,2.51
2022-08-22T20:27:15.061Z,2.49
2022-08-22T20:28:47.106Z,2.45
2022-08-22T20:30:18.770Z,2.54
2022-08-22T20:31:50.364Z,2.61
2022-08-22T20:33:21.853Z,2.77
2022-08-22T20:34:53.375Z,2.80
2022-08-22T20:36:28.425Z,2.50
2022-08-22T20:38:15.678Z,2.43
2022-08-22T20:39:47.291Z,2.53
2022-08-22T20:41:30.379Z,2.68
2022-08-22T20:43:02.083Z,2.84
2022-08-22T20:44:43.124Z,2.61
2022-08-22T20:46:14.695Z,2.58
2022-08-22T20:47:49.342Z,2.57
2022-08-22T20:49:21.310Z,2.52
2022-08-22T20:50:52.787Z,2.59
2022-08-22T20:52:24.212Z,2.77
2022-08-22T20:53:55.631Z,2.46
2022-08-22T20:55:27.249Z,2.84
2022-08-22T20:57:03.587Z,2.62
2022-08-22T20:58:35.082Z,2.69
2022-08-22T21:00:09.272Z,2.47
2022-08-22T21:01:40.689Z,2.63
2022-08-22T21:03:12.155Z,2.45
2022-08-22T21:04:43.701Z,2.54
2022-08-22T21:06:15.223Z,2.91
2022-08-22T21:07:46.644Z,2.93
2022-08-22T21:09:18.190Z,2.81
2022-08-22T21:10:49.668Z,2.93
2022-08-22T21:12:21.102Z,3.16
2022-08-22T21:13:52.594Z,2.69
2022-08-22T21:15:24.005Z,2.87
2022-08-22T21:16:55.407Z,2.83
2022-08-22T21:18:26.840Z,2.65
2022-08-22T21:19:58.375Z,2.62
2022-08-22T21:21:29.774Z,2.44
2022-08-22T21:23:01.174Z,2.71
2022-08-22T21:24:32.603Z,2.56
2022-08-22T21:26:03.987Z,2.57
2022-08-22T21:27:35.424Z,2.37
2022-08-22T21:29:07.165Z,2.67
2022-08-22T21:30:38.570Z,2.62
2022-08-22T21:32:10.077Z,2.86
2022-08-22T21:33:41.514Z,2.80
2022-08-22T21:35:13.687Z,2.63
2022-08-22T21:36:45.330Z,2.70
2022-08-22T21:38:18.206Z,2.57
2022-08-22T21:39:49.711Z,2.34
2022-08-22T21:41:21.273Z,2.31
2022-08-22T21:43:33.880Z,2.43
2022-08-22T21:45:06.050Z,2.51
2022-08-22T21:46:38.068Z,2.59
2022-08-22T21:48:10.593Z,2.65
2022-08-22T21:49:42.045Z,2.74
2022-08-22T21:51:13.436Z,2.85
2022-08-22T21:52:44.968Z,2.63
2022-08-22T21:54:19.079Z,2.52
2022-08-22T21:55:51.003Z,2.57
2022-08-22T21:57:22.409Z,2.42
2022-08-22T21:58:53.786Z,2.39
2022-08-22T22:00:26.167Z,2.23
2022-08-22T22:01:57.853Z,2.34
2022-08-22T22:03:29.223Z,2.26
2022-08-22T22:05:00.609Z,2.48
2022-08-22T22:06:33.210Z,2.47
2022-08-22T22:08:04.565Z,2.63
2022-08-22T22:10:11.398Z,2.40
2022-08-22T22:11:42.813Z,2.41
2022-08-22T22:13:14.247Z,2.29
2022-08-22T22:14:45.710Z,2.17
2022-08-22T22:16:17.245Z,2.46
2022-08-22T22:17:48.694Z,2.69
2022-08-22T22:19:20.186Z,3.10
2022-08-22T22:20:51.597Z,3.39
2022-08-22T22:22:23.223Z,3.00
2022-08-22T22:23:54.594Z,3.62
2022-08-22T22:25:41.191Z,4.08
2022-08-22T22:27:16.932Z,3.73
2022-08-22T22:28:48.884Z,3.18
2022-08-22T22:30:20.347Z,2.77
2022-08-22T22:31:52.075Z,2.59
2022-08-22T22:33:23.447Z,2.48
2022-08-22T22:34:54.948Z,2.43
2022-08-22T22:36:27.169Z,2.43
2022-08-22T22:37:58.818Z,2.39
2022-08-22T22:39:30.478Z,2.37
2022-08-22T22:41:01.850Z,2.56
2022-08-22T22:42:33.375Z,2.41
2022-08-22T22:44:04.901Z,2.54
2022-08-22T22:45:36.348Z,2.45
2022-08-22T22:47:07.743Z,2.20
2022-08-22T22:48:39.149Z,2.25
2022-08-22T22:50:10.523Z,2.40
2022-08-22T22:51:41.924Z,2.58
2022-08-22T22:53:19.382Z,2.25
2022-08-22T22:54:51.551Z,2.32
2022-08-22T22:56:22.958Z,2.36
2022-08-22T22:57:58.893Z,2.18
2022-08-22T22:59:33.177Z,2.06
2022-08-22T23:01:04.674Z,2.30
2022-08-22T23:02:36.087Z,2.18
2022-08-22T23:04:07.523Z,2.29
2022-08-22T23:05:40.087Z,2.35
2022-08-22T23:07:11.422Z,2.24
2022-08-22T23:08:42.844Z,2.39
2022-08-22T23:10:16.703Z,2.24
2022-08-22T23:11:51.842Z,2.34
2022-08-22T23:13:23.274Z,2.23
2022-08-22T23:14:54.752Z,2.34
2022-08-22T23:16:26.140Z,2.50
2022-08-22T23:17:57.599Z,2.53
2022-08-22T23:19:29.255Z,2.78
2022-08-22T23:21:00.965Z,2.33
2022-08-22T23:22:32.627Z,2.40
2022-08-22T23:24:05.377Z,2.46
2022-08-22T23:25:36.853Z,2.61
2022-08-22T23:27:08.267Z,2.43
2022-08-22T23:28:39.760Z,2.45
2022-08-22T23:30:11.421Z,2.54
2022-08-22T23:31:42.878Z,2.33
2022-08-22T23:33:14.341Z,2.26
2022-08-22T23:34:46.141Z,2.52
2022-08-22T23:36:17.587Z,2.40
2022-08-22T23:37:49.202Z,2.79
2022-08-22T23:39:20.678Z,2.56
2022-08-22T23:40:52.161Z,2.19
2022-08-22T23:42:23.589Z,2.44
2022-08-22T23:43:54.997Z,2.52
2022-08-22T23:45:26.498Z,2.50
2022-08-22T23:46:57.998Z,2.38
2022-08-22T23:48:29.682Z,2.22
2022-08-22T23:50:02.970Z,2.29
2022-08-22T23:51:37.591Z,2.41
2022-08-22T23:53:09.048Z,2.73
2022-08-22T23:54:40.487Z,2.51
2022-08-22T23:56:19.813Z,2.29
2022-08-22T23:57:51.521Z,2.71
2022-08-22T23:59:22.924Z,2.63
